createdAt,value
2023-01-22T00:03:20.252Z,6.70
2023-01-22T00:07:28.354Z,6.70
2023-01-22T00:11:31.657Z,7.10
2023-01-22T00:15:34.836Z,7.57
2023-01-22T00:19:38.833Z,6.68
2023-01-22T00:23:43.466Z,7.50
2023-01-22T00:27:46.830Z,8.02
2023-01-22T00:31:50.452Z,7.95
2023-01-22T00:35:54.043Z,8.00
2023-01-22T00:39:59.100Z,9.02
2023-01-22T00:44:02.743Z,9.50
2023-01-22T00:48:07.184Z,9.30
2023-01-22T00:52:19.640Z,9.13
2023-01-22T00:56:24.846Z,10.45
2023-01-22T01:00:28.495Z,9.13
2023-01-22T01:04:31.797Z,9.95
2023-01-22T01:08:38.234Z,8.82
2023-01-22T01:12:42.996Z,9.93
2023-01-22T01:20:59.526Z,10.23
2023-01-22T01:25:03.084Z,9.23
2023-01-22T01:29:13.173Z,5.38
2023-01-22T01:33:19.691Z,9.82
2023-01-22T01:37:23.470Z,9.93
2023-01-22T01:41:28.272Z,10.10
2023-01-22T01:45:35.161Z,10.48
2023-01-22T01:49:43.292Z,9.65
2023-01-22T01:53:50.130Z,10.35
2023-01-22T01:57:58.510Z,10.00
2023-01-22T02:02:04.527Z,9.35
2023-01-22T02:06:10.643Z,10.07
2023-01-22T02:10:14.382Z,9.68
2023-01-22T02:14:20.256Z,9.68
2023-01-22T02:18:25.448Z,8.88
2023-01-22T02:22:32.921Z,9.20
2023-01-22T02:26:36.512Z,9.48
2023-01-22T02:30:58.243Z,9.77
2023-01-22T02:35:01.576Z,8.93
2023-01-22T02:39:07.428Z,9.07
2023-01-22T02:43:10.874Z,8.73
2023-01-22T02:47:14.478Z,7.93
2023-01-22T02:51:18.195Z,8.60
2023-01-22T02:55:26.166Z,8.75
2023-01-22T02:59:29.663Z,8.30
2023-01-22T03:03:33.324Z,8.30
2023-01-22T03:07:45.204Z,8.27
2023-01-22T03:11:50.256Z,8.13
2023-01-22T03:16:13.246Z,8.05
2023-01-22T03:20:34.885Z,7.72
2023-01-22T03:24:41.788Z,8.27
2023-01-22T03:28:55.563Z,8.52
2023-01-22T03:32:59.808Z,7.88
2023-01-22T03:37:03.452Z,9.02
2023-01-22T03:41:08.323Z,8.35
2023-01-22T03:45:14.375Z,7.85
2023-01-22T03:49:18.198Z,7.70
2023-01-22T03:53:22.094Z,8.25
2023-01-22T03:57:25.744Z,6.97
2023-01-22T04:01:30.677Z,7.72
2023-01-22T04:05:34.307Z,7.85
2023-01-22T04:09:37.985Z,7.90
2023-01-22T04:13:45.367Z,8.35
2023-01-22T04:17:51.027Z,8.27
2023-01-22T04:21:59.686Z,9.27
2023-01-22T04:26:06.372Z,8.85
2023-01-22T04:30:11.471Z,9.25
2023-01-22T04:34:16.581Z,8.32
2023-01-22T04:38:20.441Z,8.57
2023-01-22T04:42:24.616Z,8.93
2023-01-22T04:46:28.176Z,9.18
2023-01-22T04:50:34.271Z,9.15
2023-01-22T04:54:37.977Z,8.00
2023-01-22T04:58:42.360Z,8.18
2023-01-22T05:02:45.852Z,9.85
2023-01-22T05:06:51.023Z,8.52
2023-01-22T05:11:00.999Z,9.73
2023-01-22T05:15:15.031Z,7.68
2023-01-22T05:19:25.672Z,9.05
2023-01-22T05:23:42.457Z,9.05
2023-01-22T05:27:57.018Z,8.75
2023-01-22T05:32:01.069Z,7.68
2023-01-22T05:36:08.144Z,8.00
2023-01-22T05:40:19.768Z,7.47
2023-01-22T05:44:35.757Z,8.18
2023-01-22T05:48:40.187Z,8.88
2023-01-22T05:52:47.737Z,7.88
2023-01-22T05:56:59.388Z,7.20
2023-01-22T06:01:02.404Z,7.75
2023-01-22T06:05:08.031Z,7.38
2023-01-22T06:09:15.224Z,8.45
2023-01-22T06:13:22.188Z,7.40
2023-01-22T06:17:26.909Z,7.68
2023-01-22T06:21:30.201Z,7.78
2023-01-22T06:25:38.987Z,7.75
2023-01-22T06:29:43.143Z,7.85
2023-01-22T06:33:45.834Z,7.82
2023-01-22T06:37:50.094Z,5.45
2023-01-22T06:41:54.873Z,7.05
2023-01-22T06:45:58.899Z,7.10
2023-01-22T06:50:01.957Z,7.60
2023-01-22T06:54:06.833Z,7.03
2023-01-22T06:58:16.439Z,7.38
2023-01-22T07:02:21.029Z,7.25
2023-01-22T07:06:26.485Z,6.93
2023-01-22T07:10:35.518Z,7.30
2023-01-22T07:14:39.143Z,5.50
2023-01-22T07:18:53.580Z,7.15
2023-01-22T07:23:00.829Z,6.53
2023-01-22T07:27:03.999Z,8.25
2023-01-22T07:31:16.271Z,6.07
2023-01-22T07:35:32.071Z,8.27
2023-01-22T07:39:35.024Z,7.68
2023-01-22T07:43:38.133Z,7.35
2023-01-22T07:48:00.070Z,7.72
2023-01-22T07:52:17.610Z,7.53
2023-01-22T07:56:28.835Z,7.47
2023-01-22T08:00:41.598Z,7.63
2023-01-22T08:04:58.525Z,7.60
2023-01-22T08:09:29.011Z,7.22
2023-01-22T08:13:40.913Z,8.00
2023-01-22T08:17:44.030Z,7.43
2023-01-22T08:21:55.464Z,7.53
2023-01-22T08:26:16.921Z,7.15
2023-01-22T08:30:27.283Z,6.75
2023-01-22T08:34:31.683Z,6.50
2023-01-22T08:38:40.752Z,6.60
2023-01-22T08:43:09.949Z,6.35
2023-01-22T08:47:29.217Z,6.45
2023-01-22T08:51:49.252Z,6.50
2023-01-22T08:55:57.598Z,6.60
2023-01-22T09:00:04.564Z,6.68
2023-01-22T09:04:11.095Z,6.18
2023-01-22T09:08:18.159Z,5.65
2023-01-22T09:12:30.161Z,5.90
2023-01-22T09:16:38.635Z,5.38
2023-01-22T09:20:46.271Z,5.78
2023-01-22T09:24:55.389Z,5.70
2023-01-22T09:28:58.477Z,5.93
2023-01-22T09:33:07.790Z,5.35
2023-01-22T09:37:19.987Z,5.65
2023-01-22T09:41:28.985Z,3.42
2023-01-22T09:45:35.321Z,5.53
2023-01-22T09:49:48.009Z,6.00
2023-01-22T09:53:55.417Z,5.55
2023-01-22T09:58:01.695Z,5.57
2023-01-22T10:02:20.130Z,6.15
2023-01-22T10:06:25.409Z,5.97
2023-01-22T10:10:29.980Z,5.88
2023-01-22T10:18:38.632Z,6.07
2023-01-22T10:22:43.934Z,5.93
2023-01-22T10:26:50.048Z,5.45
2023-01-22T10:30:57.784Z,5.60
2023-01-22T10:35:04.194Z,6.18
2023-01-22T10:39:14.587Z,5.75
2023-01-22T10:43:18.579Z,6.18
2023-01-22T10:47:27.681Z,6.93
2023-01-22T10:51:33.922Z,5.75
2023-01-22T10:55:42.340Z,5.75
2023-01-22T10:59:52.560Z,6.28
2023-01-22T11:03:55.877Z,6.43
2023-01-22T11:08:00.281Z,5.75
2023-01-22T11:12:13.856Z,6.20
2023-01-22T11:16:18.787Z,6.07
2023-01-22T11:20:26.002Z,4.13
2023-01-22T11:24:32.786Z,5.95
2023-01-22T11:28:44.053Z,5.38
2023-01-22T11:32:58.351Z,6.07
2023-01-22T11:37:11.638Z,5.82
2023-01-22T11:41:26.763Z,6.22
2023-01-22T11:45:57.941Z,6.25
2023-01-22T11:50:13.514Z,6.80
2023-01-22T11:54:42.434Z,5.80
2023-01-22T11:58:51.038Z,5.78
2023-01-22T12:03:47.321Z,6.68
2023-01-22T12:08:00.736Z,6.25
2023-01-22T12:12:22.219Z,6.28
2023-01-22T12:16:29.361Z,6.47
2023-01-22T12:20:50.372Z,6.20
2023-01-22T12:25:03.786Z,6.47
2023-01-22T12:29:12.730Z,6.03
2023-01-22T12:33:21.748Z,5.97
2023-01-22T12:37:28.500Z,5.95
2023-01-22T12:41:50.000Z,5.38
2023-01-22T12:46:09.942Z,5.32
2023-01-22T12:50:22.337Z,5.57
2023-01-22T12:54:32.979Z,4.90
2023-01-22T12:58:41.055Z,5.22
2023-01-22T13:02:48.011Z,5.72
2023-01-22T13:06:52.147Z,5.97
2023-01-22T13:11:00.681Z,5.30
2023-01-22T13:15:13.221Z,4.95
2023-01-22T13:19:21.535Z,6.07
2023-01-22T13:23:25.263Z,6.05
2023-01-22T13:27:34.914Z,5.85
2023-01-22T13:31:40.200Z,6.07
2023-01-22T13:35:47.341Z,6.97
2023-01-22T13:39:55.018Z,6.78
2023-01-22T13:44:01.103Z,6.68
2023-01-22T13:48:06.472Z,6.88
2023-01-22T13:52:15.660Z,6.35
2023-01-22T13:56:19.985Z,6.75
2023-01-22T14:00:28.914Z,7.00
2023-01-22T14:04:38.615Z,6.75
2023-01-22T14:08:49.520Z,5.90
2023-01-22T14:13:10.595Z,6.13
2023-01-22T14:17:24.145Z,6.15
2023-01-22T14:21:30.273Z,6.72
2023-01-22T14:25:32.964Z,6.22
2023-01-22T14:29:35.751Z,6.65
2023-01-22T14:33:38.559Z,6.72
2023-01-22T14:37:43.113Z,6.28
2023-01-22T14:45:51.406Z,6.25
2023-01-22T14:49:54.368Z,6.47
2023-01-22T14:53:59.615Z,6.63
2023-01-22T14:58:02.816Z,6.95
2023-01-22T15:02:08.336Z,6.47
2023-01-22T15:06:17.710Z,6.78
2023-01-22T15:10:29.061Z,6.30
2023-01-22T15:14:31.741Z,6.63
2023-01-22T15:18:35.390Z,7.00
2023-01-22T15:22:41.619Z,6.70
2023-01-22T15:26:46.271Z,6.50
2023-01-22T15:30:52.495Z,7.10
2023-01-22T15:35:04.995Z,7.47
2023-01-22T15:39:08.500Z,7.40
2023-01-22T15:43:18.356Z,6.90
2023-01-22T15:47:24.091Z,7.35
2023-01-22T15:51:34.180Z,7.00
2023-01-22T15:55:41.122Z,7.40
2023-01-22T15:59:56.333Z,8.10
2023-01-22T16:04:03.591Z,7.63
2023-01-22T16:08:11.335Z,7.85
2023-01-22T16:12:17.750Z,7.35
2023-01-22T16:16:28.088Z,7.57
2023-01-22T16:20:35.942Z,6.95
2023-01-22T16:24:41.367Z,7.82
2023-01-22T16:28:47.069Z,7.53
2023-01-22T16:32:57.613Z,7.47
2023-01-22T16:37:06.137Z,7.28
2023-01-22T16:41:25.619Z,7.60
2023-01-22T16:45:35.274Z,7.35
2023-01-22T16:49:45.672Z,7.40
2023-01-22T16:53:51.934Z,7.45
2023-01-22T16:58:01.964Z,7.80
2023-01-22T17:02:17.335Z,6.93
2023-01-22T17:06:29.802Z,7.47
2023-01-22T17:10:44.575Z,7.40
2023-01-22T17:14:53.388Z,6.78
2023-01-22T17:19:01.001Z,6.20
2023-01-22T17:23:08.299Z,6.63
2023-01-22T17:27:19.478Z,6.80
2023-01-22T17:31:25.928Z,7.13
2023-01-22T17:35:31.083Z,6.53
2023-01-22T17:39:42.826Z,6.88
2023-01-22T17:43:50.056Z,6.50
2023-01-22T17:47:59.301Z,6.20
2023-01-22T17:52:06.405Z,5.47
2023-01-22T17:56:15.187Z,6.38
2023-01-22T18:00:24.088Z,6.53
2023-01-22T18:04:38.248Z,6.03
2023-01-22T18:08:47.295Z,6.15
2023-01-22T18:12:59.027Z,6.00
2023-01-22T18:17:04.893Z,6.28
2023-01-22T18:21:11.792Z,5.90
2023-01-22T18:25:21.446Z,5.60
2023-01-22T18:29:32.033Z,6.35
2023-01-22T18:33:38.458Z,6.55
2023-01-22T18:37:45.585Z,6.22
2023-01-22T18:41:55.060Z,5.90
2023-01-22T18:46:06.974Z,6.43
2023-01-22T18:50:17.827Z,6.38
2023-01-22T18:54:27.261Z,5.63
2023-01-22T18:58:35.026Z,6.20
2023-01-22T19:02:44.496Z,5.72
2023-01-22T19:06:54.864Z,6.88
2023-01-22T19:11:10.896Z,6.80
2023-01-22T19:15:17.359Z,6.90
2023-01-22T19:19:28.599Z,6.93
2023-01-22T19:23:33.825Z,6.43
2023-01-22T19:32:15.228Z,6.82
2023-01-22T19:36:27.870Z,7.07
2023-01-22T19:40:39.828Z,7.05
2023-01-22T19:44:46.010Z,6.47
2023-01-22T19:48:51.797Z,6.90
2023-01-22T19:52:59.405Z,6.65
2023-01-22T19:57:04.932Z,6.72
2023-01-22T20:01:12.434Z,6.72
2023-01-22T20:05:18.546Z,6.50
2023-01-22T20:09:26.009Z,6.43
2023-01-22T20:13:36.592Z,6.57
2023-01-22T20:17:41.037Z,6.93
2023-01-22T20:21:46.250Z,6.57
2023-01-22T20:25:57.874Z,6.95
2023-01-22T20:30:02.388Z,7.07
2023-01-22T20:38:18.014Z,6.57
2023-01-22T20:42:28.110Z,6.55
2023-01-22T20:46:49.847Z,7.03
2023-01-22T20:50:54.814Z,8.15
2023-01-22T20:55:02.820Z,6.85
2023-01-22T20:59:14.034Z,7.28
2023-01-22T21:03:24.920Z,7.15
2023-01-22T21:07:28.716Z,7.93
2023-01-22T21:11:50.038Z,8.50
2023-01-22T21:16:18.383Z,7.82
2023-01-22T21:25:01.777Z,6.90
2023-01-22T21:29:13.109Z,7.85
2023-01-22T21:33:25.543Z,7.65
2023-01-22T21:37:33.443Z,8.00
2023-01-22T21:41:46.585Z,8.65
2023-01-22T21:46:08.325Z,7.28
2023-01-22T21:50:19.686Z,8.10
2023-01-22T21:54:31.083Z,7.40
2023-01-22T21:58:47.750Z,9.27
2023-01-22T22:03:08.347Z,8.77
2023-01-22T22:07:16.592Z,9.63
2023-01-22T22:11:45.192Z,9.73
2023-01-22T22:16:04.378Z,7.82
2023-01-22T22:20:21.234Z,7.78
2023-01-22T22:24:35.505Z,9.02
2023-01-22T22:28:41.721Z,7.97
2023-01-22T22:32:59.522Z,9.43
2023-01-22T22:37:04.450Z,7.75
2023-01-22T22:41:15.433Z,7.97
2023-01-22T22:45:24.218Z,9.05
2023-01-22T22:49:28.737Z,8.85
2023-01-22T22:53:35.820Z,9.02
2023-01-22T22:57:55.444Z,7.65
2023-01-22T23:02:11.567Z,8.35
2023-01-22T23:06:18.898Z,7.63
2023-01-22T23:10:33.214Z,7.65
2023-01-22T23:14:41.837Z,6.93
2023-01-22T23:18:54.219Z,8.10
2023-01-22T23:22:59.930Z,6.88
2023-01-22T23:27:13.771Z,7.53
2023-01-22T23:31:24.796Z,7.63
2023-01-22T23:35:31.303Z,8.05
2023-01-22T23:39:35.936Z,7.07
2023-01-22T23:47:49.122Z,7.32
2023-01-22T23:52:00.708Z,7.93
2023-01-22T23:56:06.607Z,6.60
